Time;durP1;ratioP1;P1;durP2;ratioP2;P2;SDS_P1;SDS_P2;PMS_P1;PMS_P2;Temp;Humidity;BMP_temperature;BMP_pressure;BME280_temperature;BME280_humidity;BME280_pressure;Samples;Min_cycle;Max_cycle;Signal;HPM_P1;HPM_P2
2024/03/31 00:01:19;;;;;;;;;5.00;5.00;;;;;12.03;80.92;99081.47;5121459;27;57768;-63
2024/03/31 00:03:44;;;;;;;;;7.00;5.50;;;;;12.05;80.41;99084.91;5122072;27;45540;-63
2024/03/31 00:06:11;;;;;;;;;4.00;4.00;;;;;12.08;81.08;99085.66;5122141;27;45578;-63
2024/03/31 00:08:36;;;;;;;;;6.00;6.00;;;;;12.05;80.83;99081.38;5138135;27;47313;-63
2024/03/31 00:11:04;;;;;;;;;5.25;5.00;;;;;12.15;80.93;99087.00;5121443;27;45447;-63
2024/03/31 00:13:29;;;;;;;;;7.75;6.50;;;;;12.11;81.00;99085.44;5120367;27;45462;-63
2024/03/31 00:15:54;;;;;;;;;9.25;8.25;;;;;12.14;80.80;99086.09;5121687;27;45371;-63
2024/03/31 00:18:20;;;;;;;;;6.00;6.00;;;;;12.11;81.01;99075.63;5121884;27;46198;-63
2024/03/31 00:20:45;;;;;;;;;8.75;6.75;;;;;12.03;81.09;99070.78;5117952;27;45338;-63
2024/03/31 00:23:11;;;;;;;;;6.25;5.75;;;;;12.01;81.32;99053.97;5121553;27;55146;-63
2024/03/31 00:25:36;;;;;;;;;6.50;5.50;;;;;12.12;81.13;99063.97;5121242;27;45386;-63
2024/03/31 00:28:02;;;;;;;;;6.00;6.00;;;;;12.11;80.95;99064.06;5121755;27;46043;-63
2024/03/31 00:30:27;;;;;;;;;7.00;7.00;;;;;11.97;80.92;99049.78;5121441;27;45258;-63
2024/03/31 00:32:52;;;;;;;;;6.50;5.50;;;;;12.03;81.27;99062.75;5121442;27;56102;-63
2024/03/31 00:35:18;;;;;;;;;7.75;7.75;;;;;11.99;81.09;99055.03;5121659;27;45478;-63
2024/03/31 00:37:43;;;;;;;;;5.00;5.00;;;;;11.84;81.40;99038.13;5121052;27;62044;-63
2024/03/31 00:40:08;;;;;;;;;4.00;4.00;;;;;11.90;81.82;99061.81;5120722;27;52246;-63
2024/03/31 00:42:34;;;;;;;;;5.00;5.00;;;;;11.93;81.64;99063.44;5121883;27;45439;-63
2024/03/31 00:44:59;;;;;;;;;9.25;5.50;;;;;11.82;81.63;99048.06;5136460;27;64993;-63
2024/03/31 00:47:24;;;;;;;;;5.75;4.75;;;;;11.92;81.69;99067.09;5119582;27;55702;-63
2024/03/31 00:49:50;;;;;;;;;6.00;6.00;;;;;11.86;81.78;99058.47;5120536;27;56718;-63
2024/03/31 00:52:15;;;;;;;;;4.00;4.00;;;;;11.82;81.95;99040.03;5121812;27;45369;-63
2024/03/31 00:54:43;;;;;;;;;5.75;5.25;;;;;11.92;82.00;99059.06;5120827;27;45540;-63
2024/03/31 00:57:09;;;;;;;;;6.75;6.25;;;;;11.93;82.19;99058.09;5137288;27;47233;-63
2024/03/31 00:59:34;;;;;;;;;7.25;5.75;;;;;11.90;82.16;99051.09;5121032;27;45423;-63
2024/03/31 01:02:00;;;;;;;;;8.25;6.50;;;;;11.95;82.28;99054.38;5121505;27;45410;-63
2024/03/31 01:04:25;;;;;;;;;7.75;6.00;;;;;11.98;82.42;99058.66;5121107;27;45328;-63
2024/03/31 01:06:50;;;;;;;;;6.50;5.50;;;;;11.96;82.30;99066.78;5116398;27;47226;-63
2024/03/31 01:09:15;;;;;;;;;6.00;6.00;;;;;11.91;82.58;99065.31;5117576;27;60360;-63
2024/03/31 01:11:41;;;;;;;;;7.25;7.25;;;;;11.95;82.56;99057.03;5129027;27;45449;-63
2024/03/31 01:14:08;;;;;;;;;7.75;5.75;;;;;12.00;82.81;99064.78;5134978;27;45556;-63
2024/03/31 01:16:33;;;;;;;;;7.00;5.75;;;;;11.97;82.41;99057.78;5125871;27;47354;-63
2024/03/31 01:18:58;;;;;;;;;6.50;6.00;;;;;12.04;82.94;99058.25;5136507;27;45217;-63
2024/03/31 01:21:26;;;;;;;;;9.25;6.25;;;;;11.99;82.64;99053.19;5119199;27;45311;-63
2024/03/31 01:23:54;;;;;;;;;5.50;5.00;;;;;12.08;82.94;99056.22;5136537;27;45456;-63
2024/03/31 01:26:20;;;;;;;;;5.00;5.00;;;;;11.99;82.94;99037.16;5120805;27;45414;-63
2024/03/31 01:28:45;;;;;;;;;5.50;5.00;;;;;12.09;83.02;99052.59;5120527;27;45411;-63
2024/03/31 01:31:11;;;;;;;;;5.50;3.50;;;;;12.04;83.17;99036.84;5111899;27;45347;-63
2024/03/31 01:33:36;;;;;;;;;5.25;5.25;;;;;11.96;83.41;99041.84;5116536;27;45353;-63
2024/03/31 01:36:02;;;;;;;;;4.75;4.00;;;;;12.01;83.59;99045.97;5120438;27;55416;-63
2024/03/31 01:38:27;;;;;;;;;7.00;5.25;;;;;12.06;83.47;99045.63;5120445;27;45341;-63
2024/03/31 01:40:53;;;;;;;;;6.00;4.25;;;;;12.05;83.41;99049.28;5120517;27;45761;-63
2024/03/31 01:43:18;;;;;;;;;6.00;4.75;;;;;12.04;83.57;99050.22;5120410;27;45432;-63
2024/03/31 01:45:44;;;;;;;;;6.75;4.00;;;;;12.06;83.73;99056.31;5136521;27;48354;-63
2024/03/31 01:48:09;;;;;;;;;3.50;2.50;;;;;12.04;83.71;99031.50;5119645;27;57498;-63
2024/03/31 01:50:34;;;;;;;;;4.25;4.25;;;;;12.09;83.63;99040.09;5120597;27;45433;-63
2024/03/31 01:53:00;;;;;;;;;2.75;2.75;;;;;12.14;83.76;99034.44;5119724;27;63293;-63
2024/03/31 01:55:25;;;;;;;;;4.50;3.50;;;;;12.15;83.77;99030.81;5115174;27;53351;-63
2024/03/31 01:57:50;;;;;;;;;5.25;3.75;;;;;12.12;83.81;99010.47;5117814;27;52589;-63
2024/03/31 02:00:16;;;;;;;;;3.25;3.25;;;;;12.14;84.04;99005.88;5119904;27;60597;-63
2024/03/31 02:02:41;;;;;;;;;4.00;3.00;;;;;12.09;84.01;99001.78;5120133;27;45363;-63
2024/03/31 02:05:06;;;;;;;;;3.75;3.75;;;;;12.03;83.97;98998.56;5120217;27;45566;-63
2024/03/31 02:07:32;;;;;;;;;4.00;4.00;;;;;12.16;84.01;99013.78;5120186;27;45390;-63
2024/03/31 02:09:57;;;;;;;;;3.50;3.00;;;;;12.18;83.96;99003.88;5119971;27;45574;-63
2024/03/31 02:12:22;;;;;;;;;5.00;3.00;;;;;12.03;83.87;98981.69;5119293;27;45489;-63
2024/03/31 02:14:47;;;;;;;;;3.25;3.00;;;;;12.22;83.92;99006.22;5112862;27;46889;-63
2024/03/31 02:17:13;;;;;;;;;3.25;2.25;;;;;12.06;83.97;98984.13;5113193;27;51804;-63
2024/03/31 02:19:38;;;;;;;;;4.50;4.25;;;;;12.26;83.96;98998.00;5119836;27;45362;-63
2024/03/31 02:22:03;;;;;;;;;4.00;4.00;;;;;12.17;83.89;98989.63;5116340;27;54710;-63
2024/03/31 02:24:29;;;;;;;;;4.75;3.75;;;;;12.29;84.29;99012.00;5119057;27;62063;-63
2024/03/31 02:26:54;;;;;;;;;4.00;2.75;;;;;12.29;83.90;99011.16;5121415;27;65541;-63
2024/03/31 02:29:19;;;;;;;;;5.75;4.00;;;;;12.30;83.87;99004.88;5123768;27;45340;-63
2024/03/31 02:31:44;;;;;;;;;4.50;4.00;;;;;12.16;83.96;98989.72;5123523;27;45415;-63
2024/03/31 02:34:10;;;;;;;;;4.25;3.25;;;;;12.22;84.10;99008.88;5123400;27;49247;-63
2024/03/31 02:36:35;;;;;;;;;4.00;2.00;;;;;12.25;84.01;99007.84;5123045;27;59343;-63
2024/03/31 02:39:00;;;;;;;;;4.50;4.50;;;;;12.17;84.23;98986.09;5123379;27;45306;-63
2024/03/31 02:41:26;;;;;;;;;3.00;2.00;;;;;12.15;84.25;98994.22;5123572;27;45341;-63
2024/03/31 02:43:51;;;;;;;;;3.00;3.00;;;;;12.19;84.04;98987.69;5115418;27;60867;-63
2024/03/31 02:46:16;;;;;;;;;2.75;2.75;;;;;12.20;84.16;98989.41;5117383;27;45324;-63
2024/03/31 02:48:42;;;;;;;;;4.25;3.00;;;;;12.24;84.16;98995.41;5116318;27;45618;-63
2024/03/31 02:51:07;;;;;;;;;2.50;1.75;;;;;12.16;84.23;98982.56;5115516;27;59646;-63
2024/03/31 02:53:32;;;;;;;;;4.75;3.50;;;;;12.15;84.30;98988.03;5122960;27;45323;-63
2024/03/31 02:55:58;;;;;;;;;3.25;2.50;;;;;12.17;84.45;98976.25;5119645;27;48187;-63
2024/03/31 02:58:23;;;;;;;;;5.25;3.50;;;;;12.20;84.17;98988.56;5138929;27;48658;-63
2024/03/31 03:00:48;;;;;;;;;3.00;3.00;;;;;12.18;84.45;98987.81;5122771;27;56190;-63
2024/03/31 03:03:13;;;;;;;;;3.00;3.00;;;;;12.13;84.47;98980.09;5123035;27;45309;-63
2024/03/31 03:05:39;;;;;;;;;5.50;5.00;;;;;12.08;84.78;98966.19;5109868;27;62259;-63
2024/03/31 03:08:04;;;;;;;;;4.25;3.75;;;;;12.06;84.65;98973.41;5123107;27;45241;-63
2024/03/31 03:10:30;;;;;;;;;3.75;3.00;;;;;12.07;84.82;98976.97;5131385;27;45456;-63
2024/03/31 03:12:55;;;;;;;;;5.00;3.25;;;;;12.04;85.05;98961.97;5121953;27;45299;-63
2024/03/31 03:15:21;;;;;;;;;5.25;3.00;;;;;12.12;84.99;98972.19;5123167;27;45440;-63
2024/03/31 03:17:47;;;;;;;;;7.00;5.00;;;;;11.99;84.86;98953.41;5122762;27;45532;-63
2024/03/31 03:20:12;;;;;;;;;4.00;4.00;;;;;12.07;84.98;98959.09;5111758;27;45431;-63
2024/03/31 03:22:37;;;;;;;;;4.75;3.50;;;;;11.84;85.13;98926.72;5121968;27;45996;-63
2024/03/31 03:25:03;;;;;;;;;4.00;3.00;;;;;12.07;85.08;98958.25;5122681;27;45444;-63
2024/03/31 03:27:28;;;;;;;;;5.00;4.75;;;;;12.01;84.97;98954.16;5122730;27;45389;-63
2024/03/31 03:29:54;;;;;;;;;5.00;4.00;;;;;12.09;84.98;98956.31;5121251;27;45443;-63
2024/03/31 03:32:19;;;;;;;;;4.75;3.75;;;;;12.05;85.01;98953.00;5122537;27;46127;-63
2024/03/31 03:34:45;;;;;;;;;5.25;5.00;;;;;11.99;84.96;98937.38;5122791;27;45446;-63
2024/03/31 03:37:10;;;;;;;;;5.25;5.25;;;;;11.98;84.85;98933.00;5122193;27;45452;-63
2024/03/31 03:39:36;;;;;;;;;5.00;5.00;;;;;12.00;84.83;98931.06;5117392;27;45680;-63
2024/03/31 03:42:02;;;;;;;;;5.25;5.00;;;;;12.05;84.57;98935.13;5121479;27;45463;-63
2024/03/31 03:44:27;;;;;;;;;7.50;6.00;;;;;12.07;84.89;98943.06;5117898;27;45702;-63
2024/03/31 03:46:53;;;;;;;;;4.25;4.25;;;;;12.05;84.81;98934.28;5119944;27;46390;-63
2024/03/31 03:49:18;;;;;;;;;9.25;5.00;;;;;12.08;84.67;98935.88;5117809;27;45251;-63
2024/03/31 03:51:43;;;;;;;;;9.00;6.00;;;;;12.03;84.83;98933.53;5120985;27;46291;-63
2024/03/31 03:54:08;;;;;;;;;6.50;4.00;;;;;11.96;84.89;98919.72;5121747;27;55784;-63
2024/03/31 03:56:34;;;;;;;;;4.00;4.00;;;;;11.97;85.06;98925.91;5117239;27;45605;-63
2024/03/31 03:58:59;;;;;;;;;4.50;3.25;;;;;12.02;85.16;98930.00;5102449;27;45800;-63
2024/03/31 04:01:24;;;;;;;;;7.25;4.50;;;;;11.99;84.54;98921.31;5118845;27;59895;-63
2024/03/31 04:03:50;;;;;;;;;4.75;4.00;;;;;11.96;84.90;98918.84;5122428;27;45389;-63
2024/03/31 04:06:15;;;;;;;;;5.25;3.00;;;;;11.84;84.81;98907.13;5122203;27;45802;-63
2024/03/31 04:08:40;;;;;;;;;4.50;4.50;;;;;11.88;84.82;98911.31;5121368;27;63016;-62
2024/03/31 04:11:05;;;;;;;;;6.00;3.00;;;;;11.93;84.69;98914.56;5113120;27;48498;-63
2024/03/31 04:13:31;;;;;;;;;2.75;2.75;;;;;12.01;84.41;98919.38;5111800;27;61602;-63
2024/03/31 04:16:00;;;;;;;;;3.50;3.50;;;;;11.99;84.89;98922.16;5121990;27;45390;-63
2024/03/31 04:18:26;;;;;;;;;3.50;3.25;;;;;11.94;84.95;98915.44;5120734;27;45436;-63
2024/03/31 04:20:51;;;;;;;;;4.75;3.50;;;;;11.94;85.03;98912.75;5119530;27;45318;-63
2024/03/31 04:23:17;;;;;;;;;3.50;3.00;;;;;11.89;85.05;98912.16;5121993;27;45303;-63
2024/03/31 04:25:42;;;;;;;;;4.25;3.00;;;;;11.89;84.84;98905.00;5121361;27;45270;-63
2024/03/31 04:28:07;;;;;;;;;4.25;2.75;;;;;11.85;85.03;98895.47;5121919;27;45283;-63
2024/03/31 04:30:42;;;;;;;;;4.25;4.25;;;;;11.94;85.02;98910.06;5121432;27;46296;-63
2024/03/31 04:33:11;;;;;;;;;3.75;2.00;;;;;11.80;85.03;98882.41;5121785;27;45486;-63
2024/03/31 04:35:37;;;;;;;;;3.50;3.50;;;;;11.92;84.88;98902.16;5121724;27;45469;-63
2024/03/31 04:38:05;;;;;;;;;3.00;3.00;;;;;11.84;85.13;98889.28;5109718;27;45562;-63
2024/03/31 04:40:30;;;;;;;;;3.25;3.25;;;;;11.82;85.00;98890.34;5120985;27;45394;-63
2024/03/31 04:42:56;;;;;;;;;1.50;1.00;;;;;11.81;84.96;98897.50;5117787;27;45310;-63
2024/03/31 04:45:23;;;;;;;;;3.00;3.00;;;;;11.81;85.08;98892.16;5121543;27;45257;-63
2024/03/31 04:47:48;;;;;;;;;3.75;3.75;;;;;11.82;85.03;98895.69;5121369;27;45328;-63
2024/03/31 04:50:14;;;;;;;;;5.00;5.00;;;;;11.73;85.00;98878.47;5118591;27;47344;-63
2024/03/31 04:52:39;;;;;;;;;4.25;3.00;;;;;11.79;85.10;98887.88;5121358;27;45743;-63
2024/03/31 04:55:05;;;;;;;;;5.50;4.00;;;;;11.75;85.34;98883.69;5121162;27;45731;-63
2024/03/31 04:57:30;;;;;;;;;2.50;2.00;;;;;11.83;85.39;98894.75;5121432;27;45341;-63
2024/03/31 04:59:55;;;;;;;;;4.25;4.25;;;;;11.80;85.02;98882.41;5120325;27;67245;-63
2024/03/31 05:02:20;;;;;;;;;6.50;3.50;;;;;11.89;84.96;98899.66;5119873;27;45332;-63
2024/03/31 05:04:46;;;;;;;;;4.00;3.50;;;;;11.89;84.89;98901.47;5121223;27;45414;-63
2024/03/31 05:07:11;;;;;;;;;3.00;2.00;;;;;11.88;84.89;98895.28;5121181;27;45545;-63
2024/03/31 05:09:37;;;;;;;;;5.00;4.00;;;;;11.85;84.93;98893.66;5120697;27;45379;-63
2024/03/31 05:12:02;;;;;;;;;7.25;3.50;;;;;11.86;84.74;98894.50;5129369;27;52591;-63
2024/03/31 05:14:28;;;;;;;;;3.75;3.75;;;;;11.87;84.76;98885.53;5120163;27;45465;-63
2024/03/31 05:16:53;;;;;;;;;2.00;2.00;;;;;11.82;84.79;98891.19;5121120;27;45474;-63
2024/03/31 05:19:18;;;;;;;;;3.50;3.50;;;;;11.84;84.61;98888.41;5118579;27;63675;-63
2024/03/31 05:21:43;;;;;;;;;3.25;2.25;;;;;11.77;84.70;98881.78;5117912;27;45333;-63
2024/03/31 05:24:09;;;;;;;;;3.25;3.25;;;;;11.79;85.01;98885.19;5119415;27;45444;-63
2024/03/31 05:26:35;;;;;;;;;4.00;3.25;;;;;11.78;84.62;98887.03;5120695;27;48194;-63
2024/03/31 05:29:00;;;;;;;;;5.75;3.25;;;;;11.78;84.73;98888.84;5120530;27;45510;-63
2024/03/31 05:31:25;;;;;;;;;2.75;2.00;;;;;11.79;84.73;98894.06;5120230;27;58680;-63
2024/03/31 05:33:50;;;;;;;;;6.50;3.75;;;;;11.78;85.09;98889.69;5120809;27;45388;-63
2024/03/31 05:36:16;;;;;;;;;4.50;3.00;;;;;11.79;84.83;98891.38;5109008;27;46788;-63
2024/03/31 05:38:41;;;;;;;;;2.75;2.00;;;;;11.80;85.01;98890.44;5119483;27;45346;-63
2024/03/31 05:41:06;;;;;;;;;5.25;3.75;;;;;11.74;84.48;98882.81;5120035;27;58486;-63
2024/03/31 05:43:32;;;;;;;;;3.25;3.25;;;;;11.69;84.68;98879.59;5120584;27;45278;-63
2024/03/31 05:45:57;;;;;;;;;2.00;1.75;;;;;11.71;84.54;98882.19;5120626;27;45429;-63
2024/03/31 05:48:22;;;;;;;;;5.25;3.25;;;;;11.75;84.56;98892.56;5119417;27;64151;-63
2024/03/31 05:50:47;;;;;;;;;4.00;3.00;;;;;11.75;84.78;98887.22;5120427;27;45408;-63
2024/03/31 05:53:13;;;;;;;;;7.00;3.75;;;;;11.66;84.67;98869.13;5135229;27;67890;-63
2024/03/31 05:55:38;;;;;;;;;3.00;3.00;;;;;11.76;84.62;98891.63;5118700;27;49212;-63
2024/03/31 05:58:03;;;;;;;;;2.25;2.25;;;;;11.68;84.21;98881.44;5120214;27;45972;-63
2024/03/31 06:00:29;;;;;;;;;2.00;2.00;;;;;11.72;84.45;98890.09;5120050;27;45456;-63
2024/03/31 06:02:54;;;;;;;;;2.75;2.75;;;;;11.65;84.54;98872.75;5136278;27;45313;-63
2024/03/31 06:05:19;;;;;;;;;7.00;3.00;;;;;11.73;84.11;98891.81;5118459;27;63095;-63
2024/03/31 06:07:49;;;;;;;;;5.25;3.50;;;;;11.75;84.35;98894.41;5120116;27;45673;-63
2024/03/31 06:10:15;;;;;;;;;3.25;1.75;;;;;11.72;84.25;98886.56;5120007;27;45651;-63
2024/03/31 06:12:41;;;;;;;;;5.00;4.00;;;;;11.73;84.17;98891.81;5119388;27;45406;-63
2024/03/31 06:15:06;;;;;;;;;5.00;3.00;;;;;11.67;84.23;98877.03;5116669;27;45528;-63
2024/03/31 06:17:33;;;;;;;;;6.25;2.00;;;;;11.74;84.34;98890.84;5099321;27;45588;-63
2024/03/31 06:19:59;;;;;;;;;3.50;2.50;;;;;11.65;84.39;98867.41;5099362;27;45370;-63
2024/03/31 06:22:25;;;;;;;;;3.25;2.00;;;;;11.74;84.42;98874.81;5099641;27;45332;-63
2024/03/31 06:24:50;;;;;;;;;3.75;3.25;;;;;11.76;84.19;98874.69;5099292;27;47760;-63
2024/03/31 06:27:15;;;;;;;;;4.00;3.25;;;;;11.65;84.20;98857.56;5098791;27;63377;-63
2024/03/31 06:29:41;;;;;;;;;6.75;3.00;;;;;11.74;84.03;98874.81;5099608;27;45426;-63
2024/03/31 06:32:07;;;;;;;;;4.00;2.00;;;;;11.70;83.86;98870.63;5097516;27;56501;-63
2024/03/31 06:34:33;;;;;;;;;2.25;2.00;;;;;11.74;84.16;98879.31;5099710;27;45482;-63
2024/03/31 06:36:58;;;;;;;;;4.50;2.75;;;;;11.75;84.30;98870.34;5099225;27;46114;-63
2024/03/31 06:39:23;;;;;;;;;4.50;3.50;;;;;11.70;84.03;98857.28;5114906;27;45547;-63
2024/03/31 06:41:49;;;;;;;;;3.00;3.00;;;;;11.79;84.11;98869.16;5099261;27;45368;-63
2024/03/31 06:44:14;;;;;;;;;2.50;2.00;;;;;11.80;83.95;98870.88;5099550;27;45376;-63
2024/03/31 06:46:39;;;;;;;;;4.50;2.00;;;;;11.79;83.97;98859.31;5100418;27;69905;-63
2024/03/31 06:49:05;;;;;;;;;2.25;1.50;;;;;11.81;84.14;98865.44;5099385;27;45353;-63
2024/03/31 06:51:31;;;;;;;;;2.00;2.00;;;;;11.80;84.11;98857.50;5099273;27;45422;-63
2024/03/31 06:53:56;;;;;;;;;2.00;2.00;;;;;11.83;83.97;98860.00;5099210;27;45483;-63
2024/03/31 06:56:22;;;;;;;;;5.00;3.00;;;;;11.78;83.34;98841.56;5098991;27;45377;-63
2024/03/31 06:58:47;;;;;;;;;3.00;3.00;;;;;11.84;83.41;98857.22;5099309;27;45327;-63
2024/03/31 07:01:12;;;;;;;;;5.50;4.00;;;;;11.84;83.03;98854.53;5099271;27;45419;-63
2024/03/31 07:03:38;;;;;;;;;4.50;3.25;;;;;11.79;83.18;98859.31;5099192;27;45288;-63
2024/03/31 07:06:04;;;;;;;;;9.00;4.00;;;;;11.78;83.19;98860.28;5098936;27;45292;-63
2024/03/31 07:08:29;;;;;;;;;2.50;2.50;;;;;11.58;83.11;98820.69;5098910;27;45396;-63
2024/03/31 07:10:55;;;;;;;;;6.75;5.00;;;;;11.64;83.55;98829.16;5098917;27;45368;-63
2024/03/31 07:13:20;;;;;;;;;4.25;4.25;;;;;11.84;83.34;98857.22;5116307;27;45613;-63
2024/03/31 07:15:45;;;;;;;;;3.50;2.50;;;;;11.66;82.74;98816.53;5119432;27;46232;-63
2024/03/31 07:18:11;;;;;;;;;5.00;3.50;;;;;11.64;83.21;98817.59;5123050;27;45249;-63
2024/03/31 07:20:37;;;;;;;;;3.50;2.75;;;;;11.74;83.13;98826.69;5122936;27;45477;-63
2024/03/31 07:23:04;;;;;;;;;3.00;2.00;;;;;11.87;83.43;98838.25;5123070;27;46191;-63
2024/03/31 07:25:30;;;;;;;;;3.75;3.75;;;;;11.74;82.47;98812.47;5122361;27;46537;-63
2024/03/31 07:27:55;;;;;;;;;4.75;3.50;;;;;11.94;82.73;98844.06;5122933;27;45390;-63
2024/03/31 07:30:21;;;;;;;;;4.00;3.00;;;;;11.87;82.58;98813.34;5122777;27;45431;-63
2024/03/31 07:32:46;;;;;;;;;4.00;2.75;;;;;11.82;82.53;98802.97;5138920;27;45428;-63
2024/03/31 07:35:11;;;;;;;;;4.00;3.00;;;;;11.91;82.91;98808.66;5122681;27;45493;-63
2024/03/31 07:37:37;;;;;;;;;4.00;4.00;;;;;11.92;82.88;98802.38;5138779;27;45254;-63
2024/03/31 07:40:03;;;;;;;;;4.75;3.00;;;;;11.93;83.15;98790.72;5122430;27;45383;-63
2024/03/31 07:42:28;;;;;;;;;3.00;3.00;;;;;12.05;82.90;98803.25;5122664;27;45447;-63
2024/03/31 07:44:53;;;;;;;;;1.00;1.00;;;;;12.03;82.18;98789.97;5122383;27;45339;-63
2024/03/31 07:47:18;;;;;;;;;5.00;3.25;;;;;12.08;81.76;98787.00;5112886;27;52963;-63
2024/03/31 07:49:44;;;;;;;;;2.50;2.50;;;;;12.17;81.89;98798.84;5101836;27;45314;-63
2024/03/31 07:52:09;;;;;;;;;2.25;2.00;;;;;12.17;81.52;98783.66;5101528;27;54528;-63
2024/03/31 07:54:34;;;;;;;;;4.00;1.00;;;;;12.39;81.03;98811.56;5101425;27;45886;-63
2024/03/31 07:57:00;;;;;;;;;2.25;2.25;;;;;12.19;80.48;98764.84;5101587;27;54221;-63
2024/03/31 07:59:25;;;;;;;;;2.75;2.00;;;;;12.49;80.28;98815.31;5101724;27;45452;-63
2024/03/31 08:01:53;;;;;;;;;3.00;2.00;;;;;12.38;80.49;98792.00;5101829;27;45433;-63
2024/03/31 08:04:18;;;;;;;;;1.00;1.00;;;;;12.42;80.22;98798.84;5101487;27;46199;-63
2024/03/31 08:06:43;;;;;;;;;1.50;1.50;;;;;12.52;80.14;98804.38;5101757;27;45406;-63
2024/03/31 08:09:09;;;;;;;;;6.00;2.00;;;;;12.53;80.06;98792.72;5101500;27;45442;-63
2024/03/31 08:11:34;;;;;;;;;2.00;1.00;;;;;12.70;79.96;98807.56;5117142;27;45739;-63
2024/03/31 08:13:59;;;;;;;;;1.00;1.00;;;;;12.60;79.31;98788.63;5104718;27;45502;-63
2024/03/31 08:16:25;;;;;;;;;1.00;1.00;;;;;12.61;78.83;98789.47;5120934;27;45718;-63
2024/03/31 08:18:50;;;;;;;;;2.50;1.00;;;;;12.66;79.17;98786.47;5122122;27;45441;-63
2024/03/31 08:21:15;;;;;;;;;3.50;0.75;;;;;12.74;79.17;98795.66;5121862;27;45340;-63
2024/03/31 08:23:41;;;;;;;;;1.00;0.00;;;;;12.77;79.23;98791.91;5137306;27;46659;-63
2024/03/31 08:26:06;;;;;;;;;1.00;0.75;;;;;12.84;78.71;98800.38;5122081;27;45367;-63
2024/03/31 08:28:31;;;;;;;;;1.25;1.00;;;;;12.89;78.25;98799.06;5121963;27;45526;-63
2024/03/31 08:30:56;;;;;;;;;0.50;0.50;;;;;12.93;78.57;98808.59;5137455;27;51679;-63
2024/03/31 08:33:22;;;;;;;;;1.50;0.75;;;;;13.14;78.76;98829.41;5137477;27;55323;-63
2024/03/31 08:35:54;;;;;;;;;0.00;0.00;;;;;13.17;78.56;98821.16;5122035;27;45370;-63
2024/03/31 08:38:19;;;;;;;;;1.00;1.00;;;;;13.07;78.68;98798.69;5121579;27;45370;-63
2024/03/31 08:40:55;;;;;;;;;0.50;0.00;;;;;13.20;78.48;98812.00;5120347;27;45564;-63
2024/03/31 08:43:22;;;;;;;;;2.00;0.00;;;;;13.38;78.36;98825.91;5121594;27;46267;-63
2024/03/31 08:45:49;;;;;;;;;1.00;1.00;;;;;13.42;78.17;98830.09;5121918;27;45311;-63
2024/03/31 08:48:18;;;;;;;;;3.00;3.00;;;;;13.41;77.95;98797.03;5104163;27;45437;-63
2024/03/31 08:50:44;;;;;;;;;1.25;1.25;;;;;13.30;78.15;98778.22;5101064;27;45322;-63
2024/03/31 08:53:09;;;;;;;;;0.00;0.00;;;;;13.48;78.01;98787.59;5100875;27;46346;-63
2024/03/31 08:55:35;;;;;;;;;2.25;1.00;;;;;13.45;77.83;98777.09;5116555;27;45444;-62
2024/03/31 08:58:00;;;;;;;;;0.75;0.75;;;;;13.49;77.64;98777.72;5116817;27;45925;-63
2024/03/31 09:00:26;;;;;;;;;1.00;1.00;;;;;13.57;77.84;98775.31;5100984;27;45387;-63
2024/03/31 09:02:51;;;;;;;;;0.75;0.75;;;;;13.60;77.65;98777.75;5100726;27;45943;-63
2024/03/31 09:05:17;;;;;;;;;0.75;0.75;;;;;13.83;77.41;98805.50;5100830;27;45285;-63
2024/03/31 09:07:43;;;;;;;;;0.50;0.00;;;;;13.85;77.21;98802.69;5100754;27;45371;-63
2024/03/31 09:10:09;;;;;;;;;1.00;1.00;;;;;13.75;76.81;98778.41;5100343;27;46064;-63
2024/03/31 09:12:35;;;;;;;;;2.25;0.00;;;;;13.80;76.69;98768.19;5100475;27;46288;-63
2024/03/31 09:15:02;;;;;;;;;0.50;0.50;;;;;13.86;77.01;98767.69;5112782;27;45568;-63
2024/03/31 09:17:28;;;;;;;;;1.00;1.00;;;;;13.99;76.72;98772.97;5121215;27;45494;-62
2024/03/31 09:19:53;;;;;;;;;0.00;0.00;;;;;14.05;76.79;98775.19;5136774;27;45401;-63
2024/03/31 09:22:18;;;;;;;;;0.25;0.25;;;;;14.04;76.25;98759.19;5120739;27;50523;-63
2024/03/31 09:24:44;;;;;;;;;0.00;0.00;;;;;14.13;76.64;98758.47;5120901;27;45449;-63
2024/03/31 09:27:10;;;;;;;;;0.00;0.00;;;;;14.41;76.02;98796.53;5121077;27;45531;-63
2024/03/31 09:29:41;;;;;;;;;0.00;0.00;;;;;14.36;75.91;98780.81;5121092;27;45318;-63
2024/03/31 09:32:09;;;;;;;;;1.75;0.00;;;;;14.54;75.82;98791.06;5120681;27;45458;-63
2024/03/31 09:34:35;;;;;;;;;0.75;0.00;;;;;14.50;74.61;98778.84;5121104;27;45523;-63
2024/03/31 09:37:01;;;;;;;;;1.50;0.50;;;;;14.45;74.70;98763.13;5119901;27;45451;-63
2024/03/31 09:39:27;;;;;;;;;2.00;0.75;;;;;14.69;74.45;98787.19;5120646;27;45521;-63
2024/03/31 09:41:53;;;;;;;;;0.00;0.00;;;;;14.59;74.53;98762.88;5119187;27;46754;-63
2024/03/31 09:44:19;;;;;;;;;0.75;0.00;;;;;14.74;73.47;98787.66;5120880;27;45440;-63
2024/03/31 09:46:45;;;;;;;;;0.00;0.00;;;;;14.77;73.64;98782.03;5116105;27;45388;-63
2024/03/31 09:49:13;;;;;;;;;0.00;0.00;;;;;14.82;73.69;98784.34;5098841;27;46296;-63
2024/03/31 09:51:41;;;;;;;;;1.50;0.00;;;;;14.66;73.67;98746.28;5100035;27;45452;-63
2024/03/31 09:54:21;;;;;;;;;0.25;0.00;;;;;14.92;73.62;98779.09;5099962;27;45404;-63
2024/03/31 09:57:03;;;;;;;;;0.00;0.00;;;;;14.85;73.04;98769.81;5108912;27;45391;-63
2024/03/31 09:59:29;;;;;;;;;0.00;0.00;;;;;14.89;72.89;98763.22;5119138;27;45385;-63
2024/03/31 10:01:57;;;;;;;;;2.25;0.00;;;;;14.98;72.70;98782.13;5119254;27;47363;-63
2024/03/31 10:04:38;;;;;;;;;0.00;0.00;;;;;15.05;72.93;98773.56;5120437;27;45392;-63
2024/03/31 10:07:04;;;;;;;;;0.00;0.00;;;;;14.94;72.99;98756.47;5120714;27;45341;-63
2024/03/31 10:09:32;;;;;;;;;1.00;0.00;;;;;14.91;72.31;98739.78;5120364;27;45611;-63
2024/03/31 10:12:00;;;;;;;;;0.00;0.00;;;;;14.95;72.11;98747.47;5120287;27;46588;-63
2024/03/31 10:14:26;;;;;;;;;0.00;0.00;;;;;14.96;72.37;98749.16;5120452;27;45567;-63
2024/03/31 10:16:53;;;;;;;;;0.50;0.00;;;;;14.99;72.40;98759.66;5120322;27;45423;-63
2024/03/31 10:19:19;;;;;;;;;0.00;0.00;;;;;14.98;72.56;98747.22;5120043;27;45388;-63
2024/03/31 10:21:46;;;;;;;;;0.50;0.00;;;;;15.06;72.60;98754.63;5120028;27;45424;-63
2024/03/31 10:24:13;;;;;;;;;0.00;0.00;;;;;15.17;72.59;98769.88;5120115;27;45427;-63
2024/03/31 10:26:39;;;;;;;;;1.00;1.00;;;;;15.21;72.70;98765.94;5120222;27;45333;-63
2024/03/31 10:29:05;;;;;;;;;1.00;0.00;;;;;15.17;72.19;98749.22;5136259;27;45442;-63
2024/03/31 10:31:32;;;;;;;;;0.00;0.00;;;;;15.03;71.62;98719.09;5119743;27;46708;-63
2024/03/31 10:33:58;;;;;;;;;0.00;0.00;;;;;15.12;71.81;98740.69;5118875;27;45357;-63
2024/03/31 10:36:26;;;;;;;;;0.50;0.00;;;;;15.30;71.70;98767.88;5120200;27;45262;-63
2024/03/31 10:38:51;;;;;;;;;0.00;0.00;;;;;15.16;71.59;98743.97;5119832;27;45384;-63
2024/03/31 10:41:17;;;;;;;;;0.00;0.00;;;;;15.18;72.08;98742.00;5119856;27;46031;-63
2024/03/31 10:43:42;;;;;;;;;0.00;0.00;;;;;15.19;72.24;98730.28;5120049;27;45289;-63
2024/03/31 10:46:08;;;;;;;;;0.00;0.00;;;;;15.26;72.07;98742.22;5119976;27;45779;-63
2024/03/31 10:48:33;;;;;;;;;0.00;0.00;;;;;15.22;72.20;98729.16;5103283;27;45706;-63
2024/03/31 10:51:08;;;;;;;;;0.00;0.00;;;;;15.30;71.83;98748.19;5113365;27;46839;-63
2024/03/31 10:53:33;;;;;;;;;0.00;0.00;;;;;15.42;71.76;98760.59;5123433;27;45434;-63
2024/03/31 10:56:03;;;;;;;;;12.00;12.00;;;;;15.31;71.48;98745.38;5123263;27;46002;-63
2024/03/31 10:58:28;;;;;;;;;1.00;1.00;;;;;15.32;71.57;98732.81;5123564;27;45542;-63
2024/03/31 11:00:54;;;;;;;;;0.50;0.50;;;;;15.32;71.31;98747.09;5123246;27;45343;-63
2024/03/31 11:03:25;;;;;;;;;0.00;0.00;;;;;15.31;71.15;98740.00;5123473;27;45294;-63
2024/03/31 11:05:51;;;;;;;;;0.00;0.00;;;;;15.36;71.47;98744.97;5123365;27;45425;-63
2024/03/31 11:08:17;;;;;;;;;0.00;0.00;;;;;15.50;71.62;98766.19;5123174;27;45614;-63
2024/03/31 11:10:43;;;;;;;;;0.75;0.75;;;;;15.41;71.50;98739.22;5123077;27;46491;-63
2024/03/31 11:13:08;;;;;;;;;0.00;0.00;;;;;15.56;71.13;98773.72;5121673;27;45341;-63
2024/03/31 11:15:34;;;;;;;;;1.00;0.00;;;;;15.35;71.38;98732.50;5123232;27;45789;-64
2024/03/31 11:17:59;;;;;;;;;0.75;0.75;;;;;15.41;71.48;98737.38;5122977;27;45466;-62
2024/03/31 11:20:25;;;;;;;;;0.00;0.00;;;;;15.41;71.32;98736.53;5122695;27;45459;-61
2024/03/31 11:22:53;;;;;;;;;1.00;0.00;;;;;15.38;70.93;98727.75;5123022;27;45372;-61
2024/03/31 11:25:19;;;;;;;;;0.00;0.00;;;;;15.37;71.25;98725.19;5138751;27;45400;-61
2024/03/31 11:27:45;;;;;;;;;0.00;0.00;;;;;15.59;71.02;98755.66;5123011;27;45387;-61